createdAt,value
2017-09-07T00:00:09.481Z,73934.02
2017-09-07T00:01:09.504Z,73923.02
2017-09-07T00:02:09.524Z,73919.82
2017-09-07T00:03:09.547Z,73917.47
2017-09-07T00:04:09.569Z,73919.00
2017-09-07T00:05:09.591Z,73920.60
2017-09-07T00:06:09.611Z,73920.14
2017-09-07T00:07:09.633Z,73919.31
2017-09-07T00:08:09.661Z,73920.69
2017-09-07T00:09:09.678Z,73912.14
2017-09-07T00:10:09.699Z,73905.33
2017-09-07T00:11:09.720Z,73898.44
2017-09-07T00:12:09.743Z,73900.75
2017-09-07T00:13:09.763Z,73894.43
2017-09-07T00:14:09.785Z,73898.36
2017-09-07T00:15:09.807Z,73902.87
2017-09-07T00:16:09.828Z,73905.27
2017-09-07T00:17:09.850Z,73906.90
2017-09-07T00:18:09.871Z,73910.19
2017-09-07T00:19:09.893Z,73909.78
2017-09-07T00:20:09.914Z,73911.79
2017-09-07T00:21:09.935Z,73909.93
2017-09-07T00:22:09.956Z,73911.05
2017-09-07T00:23:09.983Z,73908.44
2017-09-07T00:24:10.001Z,73908.08
2017-09-07T00:25:10.022Z,73900.31
2017-09-07T00:26:10.047Z,73895.88
2017-09-07T00:27:10.063Z,73893.35
2017-09-07T00:28:10.087Z,73883.20
2017-09-07T00:29:10.107Z,73884.84
2017-09-07T00:30:10.128Z,73886.48
2017-09-07T00:31:10.150Z,73885.29
2017-09-07T00:32:10.172Z,73887.09
2017-09-07T00:33:10.196Z,73886.03
2017-09-07T00:34:10.215Z,73882.49
2017-09-07T00:35:10.236Z,73884.59
2017-09-07T00:36:10.257Z,73883.41
2017-09-07T00:37:10.279Z,73884.65
2017-09-07T00:38:10.299Z,73886.87
2017-09-07T00:39:10.322Z,73888.54
2017-09-07T00:40:10.347Z,73892.70
2017-09-07T00:41:10.365Z,73893.30
2017-09-07T00:42:10.385Z,73895.02
2017-09-07T00:43:10.407Z,73897.23
2017-09-07T00:44:10.430Z,73898.27
2017-09-07T00:45:10.450Z,73897.08
2017-09-07T00:46:10.470Z,73898.94
2017-09-07T00:47:10.494Z,73894.90
2017-09-07T00:48:10.513Z,73897.81
2017-09-07T00:49:10.535Z,73897.23
2017-09-07T00:50:10.557Z,73890.45
2017-09-07T00:51:10.583Z,73892.48
2017-09-07T00:52:10.599Z,73893.98
2017-09-07T00:53:10.621Z,73895.81
2017-09-07T00:54:10.643Z,73895.83
2017-09-07T00:55:10.663Z,73899.17
2017-09-07T00:56:10.686Z,73896.23
2017-09-07T00:57:10.706Z,73895.50
2017-09-07T00:58:10.727Z,73896.25
2017-09-07T00:59:10.749Z,73895.80
2017-09-07T01:00:10.771Z,73893.34
2017-09-07T01:01:10.792Z,73892.61
2017-09-07T01:02:10.811Z,73891.50
2017-09-07T01:03:10.834Z,73893.55
2017-09-07T01:04:10.855Z,73895.42
2017-09-07T01:05:10.878Z,73891.81
2017-09-07T01:06:10.897Z,73887.68
2017-09-07T01:07:10.918Z,73882.33
2017-09-07T01:08:10.940Z,73882.33
2017-09-07T01:09:10.961Z,73883.45
2017-09-07T01:10:10.982Z,73887.70
2017-09-07T01:11:11.003Z,73885.58
2017-09-07T01:12:11.025Z,73889.95
2017-09-07T01:13:11.047Z,73886.95
2017-09-07T01:14:11.066Z,73890.46
2017-09-07T01:15:11.090Z,73888.33
2017-09-07T01:16:11.111Z,73883.38
2017-09-07T01:17:11.130Z,73877.51
2017-09-07T01:18:11.151Z,73874.80
2017-09-07T01:19:11.173Z,73876.73
2017-09-07T01:20:11.195Z,73873.87
2017-09-07T01:21:11.219Z,73874.99
2017-09-07T01:22:11.240Z,73876.63
2017-09-07T01:23:11.258Z,73872.80
2017-09-07T01:24:11.279Z,73874.00
2017-09-07T01:25:11.301Z,73872.32
2017-09-07T01:26:11.321Z,73870.64
2017-09-07T01:27:11.344Z,73873.72
2017-09-07T01:28:11.364Z,73862.55
2017-09-07T01:29:11.386Z,73862.63
2017-09-07T01:30:11.413Z,73858.79
2017-09-07T01:31:11.427Z,73861.37
2017-09-07T01:32:11.450Z,73862.20
2017-09-07T01:33:11.476Z,73860.98
2017-09-07T01:34:11.491Z,73862.27
2017-09-07T01:35:11.512Z,73859.77
2017-09-07T01:36:11.534Z,73859.83
2017-09-07T01:37:11.556Z,73859.27
2017-09-07T01:38:11.576Z,73860.77
2017-09-07T01:39:11.598Z,73854.89
2017-09-07T01:40:11.618Z,73856.94
2017-09-07T01:41:11.640Z,73860.84
2017-09-07T01:42:11.661Z,73862.55
2017-09-07T01:43:11.681Z,73864.98
2017-09-07T01:44:11.704Z,73860.68
2017-09-07T01:45:11.724Z,73861.09
2017-09-07T01:46:11.745Z,73858.67
2017-09-07T01:47:11.766Z,73866.49
2017-09-07T01:48:11.795Z,73861.16
2017-09-07T01:49:11.810Z,73856.30
2017-09-07T01:50:11.830Z,73852.85
2017-09-07T01:51:11.854Z,73854.95
2017-09-07T01:52:11.873Z,73851.30
2017-09-07T01:53:11.895Z,73855.73
2017-09-07T01:54:11.915Z,73854.02
2017-09-07T01:55:11.960Z,73850.69
2017-09-07T01:56:11.980Z,73848.80
2017-09-07T01:57:11.979Z,73841.62
2017-09-07T01:58:11.999Z,73847.91
2017-09-07T01:59:12.021Z,73843.90
2017-09-07T02:00:12.045Z,73841.40
2017-09-07T02:01:12.064Z,73838.44
2017-09-07T02:02:12.085Z,73841.11
2017-09-07T02:03:12.105Z,73842.02
2017-09-07T02:04:12.127Z,73841.93
2017-09-07T02:05:12.152Z,73849.70
2017-09-07T02:06:12.170Z,73846.73
2017-09-07T02:07:12.191Z,73848.27
2017-09-07T02:08:12.213Z,73843.95
2017-09-07T02:09:12.234Z,73843.88
2017-09-07T02:10:12.255Z,73844.27
2017-09-07T02:11:12.280Z,73844.96
2017-09-07T02:12:12.297Z,73843.80
2017-09-07T02:13:12.319Z,73847.60
2017-09-07T02:14:12.339Z,73841.23
2017-09-07T02:15:12.361Z,73845.92
2017-09-07T02:16:12.382Z,73841.81
2017-09-07T02:17:12.404Z,73838.90
2017-09-07T02:18:12.425Z,73838.74
2017-09-07T02:19:12.445Z,73840.36
2017-09-07T02:20:12.467Z,73835.73
2017-09-07T02:21:12.489Z,73840.88
2017-09-07T02:22:12.514Z,73840.52
2017-09-07T02:23:12.534Z,73836.09
2017-09-07T02:24:12.553Z,73837.87
2017-09-07T02:25:12.574Z,73831.77
2017-09-07T02:26:12.594Z,73835.87
2017-09-07T02:27:12.616Z,73835.66
2017-09-07T02:28:12.638Z,73838.05
2017-09-07T02:29:12.660Z,73839.09
2017-09-07T02:30:12.680Z,73838.80
2017-09-07T02:31:12.702Z,73837.72
2017-09-07T02:32:12.723Z,73836.63
2017-09-07T02:33:12.745Z,73839.29
2017-09-07T02:34:12.765Z,73835.58
2017-09-07T02:35:12.787Z,73838.23
2017-09-07T02:36:12.808Z,73836.70
2017-09-07T02:37:12.831Z,73833.48
2017-09-07T02:38:12.850Z,73828.30
2017-09-07T02:39:12.872Z,73828.49
2017-09-07T02:40:12.893Z,73824.15
2017-09-07T02:41:12.919Z,73826.28
2017-09-07T02:42:12.936Z,73828.47
2017-09-07T02:43:12.957Z,73823.73
2017-09-07T02:44:12.978Z,73835.38
2017-09-07T02:45:13.000Z,73833.64
2017-09-07T02:46:13.021Z,73831.43
2017-09-07T02:47:13.042Z,73831.38
2017-09-07T02:48:13.064Z,73830.13
2017-09-07T02:49:13.085Z,73830.78
2017-09-07T02:50:13.105Z,73829.11
2017-09-07T02:51:13.127Z,73832.24
2017-09-07T02:52:13.152Z,73830.47
2017-09-07T02:53:13.171Z,73829.54
2017-09-07T02:54:13.191Z,73833.46
2017-09-07T02:55:13.217Z,73830.36
2017-09-07T02:56:13.233Z,73824.97
2017-09-07T02:57:13.254Z,73829.27
2017-09-07T02:58:13.275Z,73817.68
2017-09-07T02:59:13.298Z,73814.83
2017-09-07T03:00:13.320Z,73812.24
2017-09-07T03:01:13.342Z,73812.33
2017-09-07T03:02:13.361Z,73812.82
2017-09-07T03:03:13.383Z,73815.45
2017-09-07T03:04:13.405Z,73813.77
2017-09-07T03:05:13.425Z,73809.28
2017-09-07T03:06:13.447Z,73800.05
2017-09-07T03:07:13.467Z,73801.35
2017-09-07T03:08:13.488Z,73806.31
2017-09-07T03:09:13.511Z,73803.45
2017-09-07T03:10:13.532Z,73799.80
2017-09-07T03:11:13.554Z,73800.07
2017-09-07T03:12:13.574Z,73797.99
2017-09-07T03:13:13.596Z,73800.02
2017-09-07T03:14:13.618Z,73804.67
2017-09-07T03:15:13.638Z,73804.34
2017-09-07T03:16:13.661Z,73800.19
2017-09-07T03:17:13.681Z,73802.97
2017-09-07T03:18:13.703Z,73799.09
2017-09-07T03:19:13.728Z,73801.97
2017-09-07T03:20:13.747Z,73802.00
2017-09-07T03:21:13.767Z,73801.44
2017-09-07T03:22:13.788Z,73802.79
2017-09-07T03:23:13.809Z,73802.25
2017-09-07T03:24:13.834Z,73805.29
2017-09-07T03:25:13.853Z,73799.55
2017-09-07T03:26:13.873Z,73792.85
2017-09-07T03:27:13.895Z,73791.70
2017-09-07T03:28:13.916Z,73782.88
2017-09-07T03:29:13.940Z,73788.38
2017-09-07T03:30:13.961Z,73787.55
2017-09-07T03:31:13.981Z,73788.16
2017-09-07T03:32:14.003Z,73784.45
2017-09-07T03:33:14.024Z,73778.73
2017-09-07T03:34:14.046Z,73781.13
2017-09-07T03:35:14.067Z,73787.19
2017-09-07T03:36:14.087Z,73786.78
2017-09-07T03:37:14.109Z,73791.16
2017-09-07T03:38:14.131Z,73790.73
2017-09-07T03:39:14.152Z,73792.66
2017-09-07T03:40:14.173Z,73791.69
2017-09-07T03:41:14.196Z,73785.93
2017-09-07T03:42:14.215Z,73781.02
2017-09-07T03:43:14.237Z,73780.44
2017-09-07T03:44:14.293Z,73780.59
2017-09-07T03:45:14.281Z,73776.15
2017-09-07T03:46:14.301Z,73772.43
2017-09-07T03:47:14.323Z,73771.29
2017-09-07T03:48:14.345Z,73774.69
2017-09-07T03:49:14.367Z,73778.41
2017-09-07T03:50:14.388Z,73777.05
2017-09-07T03:51:14.409Z,73782.38
2017-09-07T03:52:14.431Z,73785.77
2017-09-07T03:53:14.453Z,73783.87
2017-09-07T03:54:14.473Z,73779.98
2017-09-07T03:55:14.494Z,73777.58
2017-09-07T03:56:14.517Z,73776.47
2017-09-07T03:57:14.538Z,73777.84
2017-09-07T03:58:14.558Z,73779.79
2017-09-07T03:59:14.579Z,73775.83
2017-09-07T04:00:14.602Z,73771.14
2017-09-07T04:01:14.623Z,73771.50
2017-09-07T04:02:14.650Z,73774.19
2017-09-07T04:03:14.665Z,73776.26
2017-09-07T04:04:14.686Z,73777.99
2017-09-07T04:05:14.709Z,73778.95
2017-09-07T04:06:14.730Z,73782.10
2017-09-07T04:07:14.751Z,73781.79
2017-09-07T04:08:14.776Z,73780.16
2017-09-07T04:09:14.794Z,73785.52
2017-09-07T04:10:14.814Z,73785.03
2017-09-07T04:11:14.836Z,73788.20
2017-09-07T04:12:14.859Z,73785.94
2017-09-07T04:13:14.880Z,73783.58
2017-09-07T04:14:14.900Z,73784.55
2017-09-07T04:15:14.922Z,73788.62
2017-09-07T04:16:14.945Z,73781.84
2017-09-07T04:17:14.965Z,73774.92
2017-09-07T04:18:14.985Z,73769.88
2017-09-07T04:19:15.007Z,73776.54
2017-09-07T04:20:15.029Z,73774.82
2017-09-07T04:21:15.050Z,73771.75
2017-09-07T04:22:15.071Z,73775.83
2017-09-07T04:23:15.093Z,73775.30
2017-09-07T04:24:15.115Z,73777.95
2017-09-07T04:25:15.135Z,73778.11
2017-09-07T04:26:15.164Z,73774.23
2017-09-07T04:27:15.178Z,73769.09
2017-09-07T04:28:15.201Z,73772.23
2017-09-07T04:29:15.224Z,73771.65
2017-09-07T04:30:15.245Z,73770.81
2017-09-07T04:31:15.265Z,73768.84
2017-09-07T04:32:15.286Z,73772.29
2017-09-07T04:33:15.308Z,73773.36
2017-09-07T04:34:15.331Z,73770.20
2017-09-07T04:35:15.350Z,73770.71
2017-09-07T04:36:15.375Z,73768.05
2017-09-07T04:37:15.394Z,73770.94
2017-09-07T04:38:15.416Z,73766.98
2017-09-07T04:39:15.437Z,73755.98
2017-09-07T04:40:15.459Z,73758.15
2017-09-07T04:41:15.481Z,73760.51
2017-09-07T04:42:15.501Z,73760.63
2017-09-07T04:43:15.523Z,73761.42
2017-09-07T04:44:15.545Z,73766.96
2017-09-07T04:45:15.567Z,73767.46
2017-09-07T04:46:15.587Z,73764.45
2017-09-07T04:47:15.609Z,73763.63
2017-09-07T04:48:15.631Z,73762.57
2017-09-07T04:49:15.655Z,73761.63
2017-09-07T04:50:15.674Z,73761.80
2017-09-07T04:51:15.696Z,73760.24
2017-09-07T04:52:15.717Z,73758.48
2017-09-07T04:53:15.739Z,73762.09
2017-09-07T04:54:15.760Z,73768.78
2017-09-07T04:55:15.782Z,73768.38
2017-09-07T04:56:15.804Z,73768.83
2017-09-07T04:57:15.829Z,73767.36
2017-09-07T04:58:15.848Z,73765.33
2017-09-07T04:59:15.868Z,73771.51
2017-09-07T05:00:15.889Z,73768.67
2017-09-07T05:01:15.913Z,73762.83
2017-09-07T05:02:15.932Z,73765.93
2017-09-07T05:03:15.954Z,73763.57
2017-09-07T05:04:15.976Z,73764.34
2017-09-07T05:05:15.998Z,73767.39
2017-09-07T05:06:16.019Z,73770.16
2017-09-07T05:07:16.040Z,73769.00
2017-09-07T05:08:16.062Z,73772.11
2017-09-07T05:09:16.084Z,73769.13
2017-09-07T05:10:16.104Z,73769.19
2017-09-07T05:11:16.126Z,73770.95
2017-09-07T05:12:16.165Z,73772.88
2017-09-07T05:13:16.171Z,73764.89
2017-09-07T05:14:16.190Z,73763.84
2017-09-07T05:15:16.212Z,73766.14
2017-09-07T05:16:16.236Z,73766.63
2017-09-07T05:17:16.256Z,73769.70
2017-09-07T05:18:16.277Z,73771.84
2017-09-07T05:19:16.299Z,73775.32
2017-09-07T05:20:16.321Z,73779.18
2017-09-07T05:21:16.343Z,73786.36
2017-09-07T05:22:16.363Z,73783.98
2017-09-07T05:23:16.386Z,73774.41
2017-09-07T05:24:16.407Z,73780.69
2017-09-07T05:25:16.429Z,73779.63
2017-09-07T05:26:16.450Z,73785.14
2017-09-07T05:27:16.472Z,73781.07
2017-09-07T05:28:16.493Z,73776.95
2017-09-07T05:29:16.515Z,73773.58
2017-09-07T05:30:16.536Z,73772.97
2017-09-07T05:31:16.557Z,73777.35
2017-09-07T05:32:16.579Z,73779.42
2017-09-07T05:33:16.601Z,73777.35
2017-09-07T05:34:16.625Z,73773.96
2017-09-07T05:35:16.646Z,73771.73
2017-09-07T05:36:16.669Z,73766.20
2017-09-07T05:37:16.687Z,73769.06
2017-09-07T05:38:16.709Z,73770.66
2017-09-07T05:39:16.730Z,73772.42
2017-09-07T05:40:16.752Z,73776.84
2017-09-07T05:41:16.775Z,73776.55
2017-09-07T05:42:16.796Z,73774.05
2017-09-07T05:43:16.817Z,73778.35
2017-09-07T05:44:16.839Z,73785.45
2017-09-07T05:45:16.867Z,73789.53
2017-09-07T05:46:16.882Z,73798.38
2017-09-07T05:47:16.907Z,73802.01
2017-09-07T05:48:16.926Z,73801.72
2017-09-07T05:49:16.948Z,73786.72
2017-09-07T05:50:16.968Z,73778.22
2017-09-07T05:51:16.991Z,73777.44
2017-09-07T05:52:17.011Z,73775.53
2017-09-07T05:53:17.035Z,73776.11
2017-09-07T05:54:17.056Z,73774.44
2017-09-07T05:55:17.077Z,73770.81
2017-09-07T05:56:17.104Z,73773.81
2017-09-07T05:57:17.120Z,73776.43
2017-09-07T05:58:17.143Z,73779.34
2017-09-07T05:59:17.169Z,73776.59
2017-09-07T06:00:17.186Z,73779.23
2017-09-07T06:01:17.209Z,73773.48
2017-09-07T06:02:17.229Z,73778.99
2017-09-07T06:03:17.251Z,73789.51
2017-09-07T06:04:17.273Z,73786.24
2017-09-07T06:05:17.294Z,73789.18
2017-09-07T06:06:17.317Z,73795.33
2017-09-07T06:07:17.340Z,73786.89
2017-09-07T06:08:17.359Z,73789.63
2017-09-07T06:09:17.383Z,73795.02
2017-09-07T06:10:17.402Z,73793.84
2017-09-07T06:11:17.425Z,73790.22
2017-09-07T06:12:17.445Z,73788.18
2017-09-07T06:13:17.468Z,73783.68
2017-09-07T06:14:17.489Z,73780.25
2017-09-07T06:15:17.511Z,73781.67
2017-09-07T06:16:17.533Z,73786.46
2017-09-07T06:17:17.556Z,73796.05
2017-09-07T06:18:17.577Z,73793.83
2017-09-07T06:19:17.599Z,73793.32
2017-09-07T06:20:17.623Z,73792.16
2017-09-07T06:21:17.642Z,73789.72
2017-09-07T06:22:17.664Z,73793.73
2017-09-07T06:23:17.686Z,73786.91
2017-09-07T06:24:17.710Z,73770.41
2017-09-07T06:25:17.730Z,73761.72
2017-09-07T06:26:17.750Z,73760.23
2017-09-07T06:27:17.776Z,73772.38
2017-09-07T06:28:17.795Z,73772.21
2017-09-07T06:29:17.817Z,73781.74
2017-09-07T06:30:17.839Z,73775.17
2017-09-07T06:31:17.861Z,73769.30
2017-09-07T06:32:17.882Z,73767.73
2017-09-07T06:33:17.904Z,73766.82
2017-09-07T06:34:17.926Z,73768.16
2017-09-07T06:35:17.950Z,73776.70
2017-09-07T06:36:17.971Z,73775.16
2017-09-07T06:37:17.993Z,73779.90
2017-09-07T06:38:18.014Z,73775.30
2017-09-07T06:39:18.035Z,73769.88
2017-09-07T06:40:18.057Z,73760.30
2017-09-07T06:41:18.079Z,73751.15
2017-09-07T06:42:18.105Z,73747.39
2017-09-07T06:43:18.122Z,73748.16
2017-09-07T06:44:18.145Z,73764.24
2017-09-07T06:45:18.166Z,73787.23
2017-09-07T06:46:18.188Z,73794.80
2017-09-07T06:47:18.224Z,73797.85
2017-09-07T06:48:18.483Z,73797.03
2017-09-07T06:49:18.255Z,73809.49
2017-09-07T06:50:18.278Z,73824.76
2017-09-07T06:51:18.297Z,73830.80
2017-09-07T06:52:18.319Z,73825.80
2017-09-07T06:53:18.342Z,73837.16
2017-09-07T06:54:18.364Z,73827.31
2017-09-07T06:55:18.385Z,73811.07
2017-09-07T06:56:18.406Z,73790.82
2017-09-07T06:57:18.431Z,73776.15
2017-09-07T06:58:18.450Z,73773.72
2017-09-07T06:59:18.474Z,73773.47
2017-09-07T07:00:18.495Z,73770.13
2017-09-07T07:01:18.517Z,73765.17
2017-09-07T07:02:18.539Z,73763.44
2017-09-07T07:03:18.564Z,73764.17
2017-09-07T07:04:18.603Z,73759.34
2017-09-07T07:33:01.882Z,73839.61
2017-09-07T07:34:01.664Z,73853.98
2017-09-07T07:35:01.677Z,73884.27
2017-09-07T07:36:01.701Z,73896.42
2017-09-07T07:37:01.724Z,73871.09
2017-09-07T07:38:01.774Z,73846.67
2017-09-07T07:39:01.770Z,73834.11
2017-09-07T07:40:01.791Z,73818.70
2017-09-07T07:41:01.815Z,73839.71
2017-09-07T07:42:01.837Z,73870.81
2017-09-07T07:43:01.860Z,73899.50
2017-09-07T07:44:01.883Z,73927.05
2017-09-07T07:45:01.907Z,73926.22
2017-09-07T07:46:01.929Z,73887.98
2017-09-07T07:47:01.952Z,73860.03
2017-09-07T07:48:01.976Z,73837.10
2017-09-07T07:49:01.999Z,73810.84
2017-09-07T07:50:02.024Z,73790.63
2017-09-07T07:51:02.044Z,73799.21
2017-09-07T07:52:02.067Z,73805.11
2017-09-07T07:53:02.091Z,73794.33
2017-09-07T07:54:02.117Z,73800.20
2017-09-07T07:55:02.140Z,73831.30
2017-09-07T07:56:02.160Z,73824.20
2017-09-07T07:57:02.184Z,73822.84
2017-09-07T07:58:02.205Z,73819.72
2017-09-07T07:59:02.229Z,73815.32
2017-09-07T08:00:02.252Z,73806.73
2017-09-07T08:01:02.276Z,73803.21
2017-09-07T08:02:02.302Z,73801.57
2017-09-07T08:03:02.321Z,73827.20
2017-09-07T08:04:02.344Z,73865.47
2017-09-07T08:05:02.368Z,73878.74
2017-09-07T08:06:02.391Z,73873.56
2017-09-07T08:07:02.415Z,73862.88
2017-09-07T08:08:02.437Z,73835.53
2017-09-07T08:09:02.460Z,73808.25
2017-09-07T08:10:02.482Z,73786.60
2017-09-07T08:11:02.505Z,73791.03
2017-09-07T08:12:02.529Z,73785.53
2017-09-07T08:13:02.553Z,73803.30
2017-09-07T08:14:02.576Z,73831.46
2017-09-07T08:15:02.598Z,73837.32
2017-09-07T08:16:02.621Z,73846.36
2017-09-07T08:17:02.646Z,73879.01
2017-09-07T08:18:02.668Z,73884.19
2017-09-07T08:19:02.693Z,73888.00
2017-09-07T08:20:02.716Z,73891.45
2017-09-07T08:21:02.739Z,73886.89
2017-09-07T08:22:02.761Z,73880.14
2017-09-07T08:23:02.786Z,73873.61
2017-09-07T08:24:02.808Z,73887.92
2017-09-07T08:25:02.832Z,73919.42
2017-09-07T08:26:02.856Z,73918.00
2017-09-07T08:27:02.879Z,73938.20
2017-09-07T08:28:02.904Z,73935.31
2017-09-07T08:29:02.927Z,73929.63
2017-09-07T08:30:02.951Z,73927.25
2017-09-07T08:31:02.975Z,73962.38
2017-09-07T08:32:02.999Z,73844.73
2017-09-07T08:33:03.023Z,73787.62
2017-09-07T08:34:03.046Z,73790.69
2017-09-07T08:35:03.071Z,73791.91
2017-09-07T08:36:03.095Z,73801.48
2017-09-07T08:37:03.120Z,73782.77
2017-09-07T08:38:03.145Z,73811.44
2017-09-07T08:39:03.172Z,73822.97
2017-09-07T08:40:03.194Z,73778.94
2017-09-07T08:41:03.220Z,73792.10
2017-09-07T08:42:03.247Z,73819.03
2017-09-07T08:43:03.269Z,73790.20
2017-09-07T08:44:03.295Z,73804.83
2017-09-07T08:45:03.323Z,73822.53
2017-09-07T08:46:03.347Z,73804.63
2017-09-07T08:47:03.386Z,73799.52
2017-09-07T08:48:03.401Z,73794.94
2017-09-07T08:49:03.428Z,73804.75
2017-09-07T08:50:03.454Z,73799.37
2017-09-07T08:51:03.479Z,73794.27
2017-09-07T08:52:03.507Z,73796.92
2017-09-07T08:53:03.535Z,73795.44
2017-09-07T08:54:03.560Z,73797.48
2017-09-07T08:55:03.588Z,73785.48
2017-09-07T08:56:03.615Z,73787.24
2017-09-07T08:57:03.641Z,73795.83
2017-09-07T08:58:03.668Z,73805.16
2017-09-07T08:59:03.701Z,73804.38
2017-09-07T09:00:03.721Z,73804.18
2017-09-07T09:01:03.750Z,73803.75
2017-09-07T09:02:03.777Z,73804.50
2017-09-07T09:03:03.804Z,73800.62
2017-09-07T09:04:03.832Z,73791.75
2017-09-07T09:05:03.860Z,73838.11
2017-09-07T09:06:03.887Z,73805.92
2017-09-07T09:07:03.914Z,73809.28
2017-09-07T09:08:03.942Z,73795.80
2017-09-07T09:09:03.970Z,73793.84
2017-09-07T09:10:03.999Z,73816.29
2017-09-07T09:11:04.027Z,73821.05
2017-09-07T09:12:04.054Z,73810.71
2017-09-07T09:13:04.084Z,73807.81
2017-09-07T09:14:04.111Z,73812.27
2017-09-07T09:15:04.138Z,73819.16
2017-09-07T09:16:04.167Z,73809.41
2017-09-07T09:17:04.195Z,73796.88
2017-09-07T09:18:04.222Z,73803.86
2017-09-07T09:19:04.253Z,73814.59
2017-09-07T09:20:04.278Z,73804.02
2017-09-07T09:21:04.306Z,73802.34
2017-09-07T09:22:04.332Z,73808.62
2017-09-07T09:23:04.361Z,73789.84
2017-09-07T09:24:04.388Z,73805.35
2017-09-07T09:25:04.416Z,73799.44
2017-09-07T09:26:04.443Z,73800.65
2017-09-07T09:27:04.471Z,73813.20
2017-09-07T09:28:04.500Z,73804.61
2017-09-07T09:29:04.529Z,73794.34
2017-09-07T09:30:04.554Z,73814.70
2017-09-07T09:31:04.584Z,73804.56
2017-09-07T09:32:04.615Z,73801.38
2017-09-07T09:33:04.639Z,73821.19
2017-09-07T09:34:04.668Z,73790.57
2017-09-07T09:35:04.698Z,73814.14
2017-09-07T09:36:04.726Z,73791.48
2017-09-07T09:37:04.754Z,73805.14
2017-09-07T09:38:04.782Z,73797.26
2017-09-07T09:39:04.810Z,73796.69
2017-09-07T09:40:04.839Z,73794.44
2017-09-07T09:41:04.868Z,73806.31
2017-09-07T09:42:04.896Z,73797.20
2017-09-07T09:43:04.924Z,73831.05
2017-09-07T09:44:04.954Z,73792.90
2017-09-07T09:45:04.982Z,73806.85
2017-09-07T09:46:05.011Z,73813.70
2017-09-07T09:47:05.041Z,73797.76
2017-09-07T09:48:05.071Z,73795.30
2017-09-07T09:49:05.101Z,73813.64
2017-09-07T09:50:05.130Z,73807.98
2017-09-07T09:51:05.159Z,73803.02
2017-09-07T09:52:05.189Z,73829.45
2017-09-07T09:53:05.221Z,73848.05
2017-09-07T09:54:05.250Z,73804.23
2017-09-07T09:55:05.283Z,73776.16
2017-09-07T09:56:05.314Z,73797.73
2017-09-07T09:57:05.345Z,73807.69
2017-09-07T09:58:05.375Z,73801.78
2017-09-07T09:59:05.408Z,73829.25
2017-09-07T10:00:05.440Z,73816.65
2017-09-07T10:01:05.473Z,73814.38
2017-09-07T10:02:05.510Z,73801.08
2017-09-07T10:03:05.536Z,73784.46
2017-09-07T10:04:05.568Z,73781.93
2017-09-07T10:05:05.601Z,73807.27
2017-09-07T10:06:05.633Z,73789.03
2017-09-07T10:07:05.664Z,73795.47
2017-09-07T10:08:05.696Z,73806.43
2017-09-07T10:09:05.764Z,73813.31
2017-09-07T10:10:05.757Z,73798.95
2017-09-07T10:11:05.788Z,73810.56
2017-09-07T10:12:05.821Z,73811.55
2017-09-07T10:13:05.887Z,73820.35
2017-09-07T10:14:05.878Z,73799.05
2017-09-07T10:15:05.908Z,73801.19
2017-09-07T10:16:05.937Z,73807.49
2017-09-07T10:17:05.972Z,73819.04
2017-09-07T10:18:05.995Z,73811.75
2017-09-07T10:19:06.026Z,73809.04
2017-09-07T10:20:06.056Z,73808.53
2017-09-07T10:21:06.092Z,73818.06
2017-09-07T10:22:06.113Z,73826.88
2017-09-07T10:23:06.142Z,73825.16
2017-09-07T10:24:06.172Z,73806.86
2017-09-07T10:25:06.202Z,73810.43
2017-09-07T10:26:06.230Z,73802.27
2017-09-07T10:27:06.261Z,73810.22
2017-09-07T10:28:06.540Z,73804.59
2017-09-07T10:29:06.320Z,73827.25
2017-09-07T10:30:06.350Z,73799.08
2017-09-07T10:31:06.380Z,73814.01
2017-09-07T10:32:06.410Z,73801.41
2017-09-07T10:33:06.441Z,73809.92
2017-09-07T10:34:06.471Z,73806.27
2017-09-07T10:35:06.500Z,73803.59
2017-09-07T10:36:06.529Z,73811.67
2017-09-07T10:37:06.563Z,73810.91
2017-09-07T10:38:06.594Z,73806.81
2017-09-07T10:39:06.617Z,73808.71
2017-09-07T10:40:06.650Z,73802.84
2017-09-07T10:41:06.676Z,73811.60
2017-09-07T10:42:06.704Z,73809.27
2017-09-07T10:43:06.734Z,73809.11
2017-09-07T10:44:06.763Z,73799.51
2017-09-07T10:45:06.793Z,73784.70
2017-09-07T10:46:06.819Z,73799.35
2017-09-07T10:47:06.850Z,73810.17
2017-09-07T10:48:06.878Z,73808.60
2017-09-07T10:49:06.909Z,73830.87
2017-09-07T10:50:06.936Z,73819.82
2017-09-07T10:51:06.966Z,73823.09
2017-09-07T10:52:06.999Z,73819.02
2017-09-07T10:53:07.026Z,73816.27
2017-09-07T10:54:07.056Z,73815.96
2017-09-07T10:55:07.089Z,73800.52
2017-09-07T10:56:07.120Z,73794.73
2017-09-07T10:57:07.149Z,73810.82
2017-09-07T10:58:07.181Z,73823.44
2017-09-07T10:59:07.213Z,73799.34
2017-09-07T11:00:07.244Z,73792.47
2017-09-07T11:01:07.275Z,73788.37
2017-09-07T11:02:07.306Z,73782.68
2017-09-07T11:03:07.337Z,73795.34
2017-09-07T11:04:07.369Z,73791.27
2017-09-07T11:05:07.400Z,73786.49
2017-09-07T11:06:07.429Z,73802.26
2017-09-07T11:07:07.460Z,73793.16
2017-09-07T11:08:07.489Z,73790.41
2017-09-07T11:09:07.519Z,73795.23
2017-09-07T11:10:07.547Z,73802.57
2017-09-07T11:11:07.576Z,73806.91
2017-09-07T11:12:07.604Z,73807.23
2017-09-07T11:13:07.634Z,73802.83
2017-09-07T11:14:07.662Z,73802.20
2017-09-07T11:15:07.690Z,73803.20
2017-09-07T11:16:07.718Z,73804.60
2017-09-07T11:17:07.746Z,73806.78
2017-09-07T11:18:07.772Z,73811.86
2017-09-07T11:19:07.801Z,73808.07
2017-09-07T11:20:07.828Z,73801.34
2017-09-07T11:21:07.856Z,73801.80
2017-09-07T11:22:07.881Z,73804.96
2017-09-07T11:23:07.910Z,73806.05
2017-09-07T11:24:07.936Z,73810.06
2017-09-07T11:25:07.962Z,73796.15
2017-09-07T11:26:07.989Z,73800.73
2017-09-07T11:27:08.016Z,73804.95
2017-09-07T11:28:08.043Z,73801.11
2017-09-07T11:29:08.069Z,73805.74
2017-09-07T11:30:08.095Z,73797.70
2017-09-07T11:31:08.122Z,73810.48
2017-09-07T11:32:08.148Z,73811.11
2017-09-07T11:33:08.177Z,73814.23
2017-09-07T11:34:08.202Z,73811.57
2017-09-07T11:35:08.232Z,73810.10
2017-09-07T11:36:08.258Z,73804.46
2017-09-07T11:37:08.289Z,73809.95
2017-09-07T11:38:08.316Z,73809.63
2017-09-07T11:39:08.347Z,73810.09
2017-09-07T11:40:08.378Z,73807.05
2017-09-07T11:41:08.415Z,73811.17
2017-09-07T11:42:08.444Z,73817.21
2017-09-07T11:43:08.477Z,73805.25
2017-09-07T11:44:08.512Z,73797.09
2017-09-07T11:45:08.547Z,73799.64
2017-09-07T11:46:08.579Z,73805.48
2017-09-07T11:47:08.613Z,73809.28
2017-09-07T11:48:08.647Z,73807.45
2017-09-07T11:49:08.681Z,73812.75
2017-09-07T11:50:08.716Z,73809.15
2017-09-07T11:51:08.749Z,73809.94
2017-09-07T11:52:08.782Z,73808.62
2017-09-07T11:53:08.818Z,73803.39
2017-09-07T11:54:08.850Z,73802.57
2017-09-07T11:55:08.884Z,73801.59
2017-09-07T11:56:08.916Z,73801.42
2017-09-07T11:57:08.949Z,73801.45
2017-09-07T11:58:08.984Z,73800.02
2017-09-07T11:59:09.012Z,73800.84
2017-09-07T12:00:09.045Z,73805.05
2017-09-07T12:01:09.075Z,73804.02
2017-09-07T12:02:09.106Z,73810.21
2017-09-07T12:03:09.136Z,73812.91
2017-09-07T12:04:09.166Z,73816.57
2017-09-07T12:05:09.197Z,73811.59
2017-09-07T12:06:09.226Z,73813.03
2017-09-07T12:07:09.261Z,73811.96
2017-09-07T12:08:09.287Z,73818.38
2017-09-07T12:09:09.316Z,73814.42
2017-09-07T12:10:09.344Z,73819.05
2017-09-07T12:11:09.375Z,73813.19
2017-09-07T12:12:09.405Z,73813.15